Time;durP1;ratioP1;P1;durP2;ratioP2;P2;SDS_P1;SDS_P2;PMS_P1;PMS_P2;Temp;Humidity;BMP_temperature;BMP_pressure;BME280_temperature;BME280_humidity;BME280_pressure;Samples;Min_cycle;Max_cycle;Signal;HPM_P1;HPM_P2
2021/08/03 00:02:26;;;;;;;2.20;1.25;;;;;;;-144.51;100.00;69251.94;4956135;28;20043;-69
2021/08/03 00:05:23;;;;;;;4.45;1.27;;;;;;;-144.51;100.00;69251.94;4998801;28;20042;-69
2021/08/03 00:08:23;;;;;;;2.58;1.40;;;;;;;-144.51;100.00;69251.94;4998716;28;20047;-69
2021/08/03 00:11:09;;;;;;;5.07;1.77;;;;;;;-144.51;100.00;69251.94;4995965;28;20396;-69
2021/08/03 00:13:54;;;;;;;3.33;1.27;;;;;;;-144.51;100.00;69251.94;4998690;28;20046;-69
2021/08/03 00:16:41;;;;;;;2.55;1.27;;;;;;;-144.51;100.00;69251.94;4998583;28;20054;-69
2021/08/03 00:19:27;;;;;;;2.80;1.30;;;;;;;-144.51;100.00;69251.94;4998685;28;20046;-69
2021/08/03 00:22:12;;;;;;;6.30;1.33;;;;;;;-144.51;100.00;69251.94;4992904;28;20050;-69
2021/08/03 00:24:57;;;;;;;1.35;1.00;;;;;;;-144.51;100.00;69251.94;4996698;28;20065;-69
2021/08/03 00:27:42;;;;;;;3.42;1.90;;;;;;;-144.51;100.00;69251.94;4995566;28;20408;-69
2021/08/03 00:30:27;;;;;;;3.88;2.20;;;;;;;-144.51;100.00;69251.94;5001612;28;20042;-69
2021/08/03 00:33:13;;;;;;;4.47;1.50;;;;;;;-144.51;100.00;69251.94;5002119;28;20046;-69
2021/08/03 00:35:59;;;;;;;3.10;1.45;;;;;;;-144.51;100.00;69251.94;5002148;28;20042;-69
2021/08/03 00:38:44;;;;;;;3.35;1.50;;;;;;;-144.51;100.00;69251.94;4995809;28;20046;-69
2021/08/03 00:41:37;;;;;;;5.10;1.55;;;;;;;-144.51;100.00;69251.94;4998223;28;20659;-69
2021/08/03 00:44:44;;;;;;;3.05;1.60;;;;;;;-144.51;100.00;69251.94;5001882;28;20504;-69
2021/08/03 00:47:32;;;;;;;3.10;1.35;;;;;;;-144.51;100.00;69251.94;4987348;28;20484;-69
2021/08/03 00:50:25;;;;;;;2.47;1.40;;;;;;;-144.51;100.00;69251.94;5001026;28;20046;-70
2021/08/03 00:53:11;;;;;;;5.88;2.17;;;;;;;-144.51;100.00;69251.94;5001946;28;20042;-69
2021/08/03 00:56:01;;;;;;;3.75;1.80;;;;;;;-144.51;100.00;69251.94;4987026;28;20046;-68
2021/08/03 00:58:46;;;;;;;4.22;1.60;;;;;;;-144.51;100.00;69251.94;5001636;28;20046;-69
2021/08/03 01:01:31;;;;;;;3.38;1.88;;;;;;;-144.51;100.00;69251.94;4997920;28;20050;-70
2021/08/03 01:04:17;;;;;;;2.42;1.45;;;;;;;-144.51;100.00;69251.94;4986682;28;20404;-69
2021/08/03 01:07:27;;;;;;;3.95;1.92;;;;;;;-144.51;100.00;69251.94;5001473;28;20046;-69
2021/08/03 01:10:24;;;;;;;2.53;1.33;;;;;;;-144.51;100.00;69251.94;4986503;28;20488;-69
2021/08/03 01:13:32;;;;;;;3.05;1.50;;;;;;;-144.51;100.00;69251.94;5001318;28;20042;-69
2021/08/03 01:16:29;;;;;;;2.20;1.50;;;;;;;-144.51;100.00;69251.94;4986702;28;20054;-69
2021/08/03 01:19:35;;;;;;;4.68;1.80;;;;;;;-144.51;100.00;69251.94;4986466;28;20500;-69
2021/08/03 01:22:47;;;;;;;5.85;1.55;;;;;;;-144.51;100.00;69251.94;4980233;28;20046;-68
2021/08/03 01:26:09;;;;;;;4.40;2.47;;;;;;;-144.51;100.00;69251.94;4997988;28;20046;-69
2021/08/03 01:29:02;;;;;;;2.28;1.40;;;;;;;-144.51;100.00;69251.94;4986338;28;20034;-69
2021/08/03 01:31:50;;;;;;;4.60;1.33;;;;;;;-144.51;100.00;69251.94;4996664;28;20038;-69
2021/08/03 01:34:42;;;;;;;8.60;1.80;;;;;;;-144.51;100.00;69251.94;5001025;28;20038;-69
2021/08/03 01:37:31;;;;;;;6.22;1.58;;;;;;;-144.51;100.00;69251.94;4955239;28;20039;-68
2021/08/03 01:40:18;;;;;;;10.23;1.52;;;;;;;-144.51;100.00;69251.94;4960616;28;20043;-70
2021/08/03 01:43:06;;;;;;;6.13;1.88;;;;;;;-144.51;100.00;69251.94;4962164;28;20047;-69
2021/08/03 01:45:54;;;;;;;4.55;1.42;;;;;;;-144.51;100.00;69251.94;4955536;29;20043;-70
2021/08/03 01:48:45;;;;;;;2.58;1.77;;;;;;;-144.51;100.00;69251.94;4961952;28;20043;-69
2021/08/03 01:51:31;;;;;;;3.95;2.20;;;;;;;-144.51;100.00;69251.94;4958259;28;20043;-67
2021/08/03 01:54:19;;;;;;;5.88;1.40;;;;;;;-144.51;100.00;69251.94;4961717;28;20397;-69
2021/08/03 01:57:05;;;;;;;4.85;1.70;;;;;;;-144.51;100.00;69251.94;4961742;28;20039;-68
2021/08/03 01:59:54;;;;;;;5.15;1.50;;;;;;;-144.51;100.00;69251.94;4955560;29;20063;-69
2021/08/03 02:02:40;;;;;;;6.28;1.95;;;;;;;-144.51;100.00;69251.94;4947365;28;20064;-69
2021/08/03 02:05:28;;;;;;;3.47;1.30;;;;;;;-144.51;100.00;69251.94;4961606;28;20051;-69
2021/08/03 02:08:21;;;;;;;4.55;2.15;;;;;;;-144.51;100.00;69251.94;4947094;28;20035;-69
2021/08/03 02:11:16;;;;;;;3.97;1.55;;;;;;;-144.51;100.00;69251.94;4958352;28;20047;-69
2021/08/03 02:14:06;;;;;;;7.22;1.55;;;;;;;-144.51;100.00;69251.94;4960439;28;20035;-69
2021/08/03 02:17:05;;;;;;;3.58;1.33;;;;;;;-144.51;100.00;69251.94;4946796;28;20489;-69
2021/08/03 02:20:13;;;;;;;7.60;1.80;;;;;;;-144.51;100.00;69251.94;4954903;28;20501;-69
2021/08/03 02:23:03;;;;;;;2.45;1.45;;;;;;;-144.51;100.00;69251.94;4960272;28;20039;-69
2021/08/03 02:25:51;;;;;;;3.25;1.65;;;;;;;-144.51;100.00;69251.94;4955895;28;20047;-69
2021/08/03 02:28:36;;;;;;;3.13;1.50;;;;;;;-144.51;100.00;69251.94;4960084;28;20051;-69
2021/08/03 02:31:50;;;;;;;6.63;1.60;;;;;;;-144.51;100.00;69251.94;4956265;28;20039;-69
2021/08/03 02:34:44;;;;;;;6.80;1.30;;;;;;;-144.51;100.00;69251.94;4946607;28;20035;-68
2021/08/03 02:37:36;;;;;;;2.85;1.40;;;;;;;-144.51;100.00;69251.94;4961239;28;20047;-69
2021/08/03 02:40:23;;;;;;;4.57;1.50;;;;;;;-144.51;100.00;69251.94;4946005;28;20051;-69
2021/08/03 02:43:31;;;;;;;3.40;1.50;;;;;;;-144.51;100.00;69251.94;4955268;28;20047;-69
2021/08/03 02:46:22;;;;;;;2.50;1.67;;;;;;;-144.51;100.00;69251.94;4960846;28;20489;-68
2021/08/03 02:49:12;;;;;;;4.13;1.55;;;;;;;-144.51;100.00;69251.94;4960241;28;20039;-69
2021/08/03 02:51:57;;;;;;;6.78;1.60;;;;;;;-144.51;100.00;69251.94;4955977;28;20051;-69
2021/08/03 02:54:46;;;;;;;5.15;2.35;;;;;;;-144.51;100.00;69251.94;4960723;28;20047;-70
2021/08/03 02:57:34;;;;;;;2.70;1.65;;;;;;;-144.51;100.00;69251.94;4960617;28;20043;-69
2021/08/03 03:00:19;;;;;;;1.65;0.98;;;;;;;-144.51;100.00;69251.94;4959145;28;20043;-69
2021/08/03 03:03:15;;;;;;;5.57;1.98;;;;;;;-144.51;100.00;69251.94;4959466;28;20051;-69
2021/08/03 03:06:04;;;;;;;3.03;1.73;;;;;;;-144.51;100.00;69251.94;4959307;28;20039;-69
2021/08/03 03:08:53;;;;;;;4.05;1.83;;;;;;;-144.51;100.00;69251.94;4960452;28;20039;-67
2021/08/03 03:11:40;;;;;;;4.40;1.40;;;;;;;-144.51;100.00;69251.94;4955792;28;20047;-69
2021/08/03 03:14:29;;;;;;;5.13;1.40;;;;;;;-144.51;100.00;69251.94;4959438;28;20039;-69
2021/08/03 03:17:16;;;;;;;4.93;1.48;;;;;;;-144.51;100.00;69251.94;4959377;28;20043;-69
2021/08/03 03:20:03;;;;;;;3.33;1.63;;;;;;;-144.51;100.00;69251.94;4959394;28;20047;-69
2021/08/03 03:22:52;;;;;;;1.73;1.30;;;;;;;-144.51;100.00;69251.94;4960234;28;20047;-69
2021/08/03 03:25:38;;;;;;;2.53;1.42;;;;;;;-144.51;100.00;69251.94;4954160;28;20043;-69
2021/08/03 03:28:29;;;;;;;4.90;1.70;;;;;;;-144.51;100.00;69251.94;4959260;28;20047;-69
2021/08/03 03:31:16;;;;;;;1.52;1.27;;;;;;;-144.51;100.00;69251.94;4942774;29;20047;-68
2021/08/03 03:34:06;;;;;;;3.90;1.52;;;;;;;-144.51;100.00;69251.94;4959217;28;20047;-68
2021/08/03 03:36:52;;;;;;;4.57;1.48;;;;;;;-144.51;100.00;69251.94;4959294;28;20513;-70
2021/08/03 03:39:39;;;;;;;4.50;1.90;;;;;;;-144.51;100.00;69251.94;4960066;29;20051;-68
2021/08/03 03:42:34;;;;;;;3.35;1.58;;;;;;;-144.51;100.00;69251.94;4953147;29;20042;-69
2021/08/03 03:45:20;;;;;;;3.38;1.42;;;;;;;-144.51;100.00;69251.94;4945531;29;20047;-69
2021/08/03 03:48:12;;;;;;;2.88;1.63;;;;;;;-144.51;100.00;69251.94;4960081;28;20054;-69
2021/08/03 03:50:59;;;;;;;3.20;1.50;;;;;;;-144.51;100.00;69251.94;4956827;28;20043;-69
2021/08/03 03:53:53;;;;;;;5.70;1.40;;;;;;;-144.51;100.00;69251.94;4945520;29;20039;-69
2021/08/03 03:56:48;;;;;;;2.10;1.40;;;;;;;-144.51;100.00;69251.94;4960089;29;20039;-68
2021/08/03 03:59:35;;;;;;;2.40;1.50;;;;;;;-144.51;100.00;69251.94;4959985;29;20039;-69
2021/08/03 04:02:21;;;;;;;5.72;1.98;;;;;;;-144.51;100.00;69251.94;4957400;28;20043;-69
2021/08/03 04:05:11;;;;;;;3.22;1.65;;;;;;;-144.51;100.00;69251.94;4962702;28;20485;-69
2021/08/03 04:07:56;;;;;;;8.50;1.70;;;;;;;-144.51;100.00;69251.94;4962743;28;20051;-68
2021/08/03 04:10:42;;;;;;;3.13;1.45;;;;;;;-144.51;100.00;69251.94;4961151;28;20268;-69
2021/08/03 04:13:28;;;;;;;5.30;1.60;;;;;;;-144.51;100.00;69251.94;4963670;28;20047;-69
2021/08/03 04:16:14;;;;;;;2.85;1.50;;;;;;;-144.51;100.00;69251.94;4963582;28;20047;-67
2021/08/03 04:18:59;;;;;;;7.40;1.58;;;;;;;-144.51;100.00;69251.94;4963672;28;20043;-70
2021/08/03 04:21:47;;;;;;;3.92;1.55;;;;;;;-144.51;100.00;69251.94;4959204;28;20047;-69
2021/08/03 04:24:32;;;;;;;4.07;1.42;;;;;;;-144.51;100.00;69251.94;4962659;28;20498;-69
2021/08/03 04:27:18;;;;;;;6.10;1.35;;;;;;;-144.51;100.00;69251.94;4956938;29;20481;-69
2021/08/03 04:30:07;;;;;;;6.22;1.77;;;;;;;-144.51;100.00;69251.94;4963260;28;20043;-69
2021/08/03 04:32:52;;;;;;;5.72;1.40;;;;;;;-144.51;100.00;69251.94;4963288;28;20501;-68
2021/08/03 04:35:37;;;;;;;6.97;1.73;;;;;;;-144.51;100.00;69251.94;4963185;28;20047;-69
2021/08/03 04:38:22;;;;;;;5.43;1.80;;;;;;;-144.51;100.00;69251.94;4963196;28;20047;-68
2021/08/03 04:41:07;;;;;;;5.00;1.55;;;;;;;-144.51;100.00;69251.94;4960425;28;20047;-69
2021/08/03 04:43:52;;;;;;;9.32;1.45;;;;;;;-144.51;100.00;69251.94;4963029;28;20051;-69
2021/08/03 04:46:37;;;;;;;7.78;2.50;;;;;;;-144.51;100.00;69251.94;4985560;28;20435;-68
2021/08/03 04:49:21;;;;;;;5.95;1.40;;;;;;;-144.51;100.00;69251.94;5001380;28;20054;-69
2021/08/03 04:52:07;;;;;;;6.13;3.15;;;;;;;-144.51;100.00;69251.94;4991165;28;20051;-68
2021/08/03 04:54:51;;;;;;;8.50;1.75;;;;;;;-144.51;100.00;69251.94;4982277;28;20038;-69
2021/08/03 04:57:36;;;;;;;20.17;2.35;;;;;;;-144.51;100.00;69251.94;4981943;28;20404;-68
2021/08/03 05:00:21;;;;;;;2.60;1.45;;;;;;;-144.51;100.00;69251.94;4981582;28;20043;-70
2021/08/03 05:03:07;;;;;;;14.25;2.38;;;;;;;-144.51;100.00;69251.94;4984473;28;20046;-68
2021/08/03 05:05:52;;;;;;;9.35;1.70;;;;;;;-144.51;100.00;69251.94;4978999;28;20042;-68
2021/08/03 05:08:37;;;;;;;10.48;2.55;;;;;;;-144.51;100.00;69251.94;4974346;28;20043;-68
2021/08/03 05:11:22;;;;;;;8.90;2.05;;;;;;;-144.51;100.00;69251.94;4970554;28;20500;-68
2021/08/03 05:14:07;;;;;;;8.00;1.52;;;;;;;-144.51;100.00;69251.94;4961763;28;20408;-68
2021/08/03 05:16:52;;;;;;;6.93;2.13;;;;;;;-144.51;100.00;69251.94;4994769;28;20050;-68
2021/08/03 05:19:37;;;;;;;6.78;1.30;;;;;;;-144.51;100.00;69251.94;4979737;28;20416;-68
2021/08/03 05:22:22;;;;;;;7.18;1.50;;;;;;;-144.51;100.00;69251.94;4989772;28;20038;-68
2021/08/03 05:25:09;;;;;;;5.80;2.75;;;;;;;-144.51;100.00;69251.94;4996406;28;20046;-68
2021/08/03 05:27:54;;;;;;;9.95;2.08;;;;;;;-144.51;100.00;69251.94;4973143;28;20035;-68
2021/08/03 05:30:39;;;;;;;6.22;1.70;;;;;;;-144.51;100.00;69251.94;4978580;28;20046;-68
2021/08/03 05:33:24;;;;;;;6.97;1.38;;;;;;;-144.51;100.00;69251.94;4977333;28;20492;-68
2021/08/03 05:36:09;;;;;;;2.88;1.48;;;;;;;-144.51;100.00;69251.94;4975016;28;20413;-68
2021/08/03 05:38:54;;;;;;;4.55;1.40;;;;;;;-144.51;100.00;69251.94;4975243;28;20050;-69
2021/08/03 05:41:39;;;;;;;5.43;1.30;;;;;;;-144.51;100.00;69251.94;4977256;28;20051;-68
2021/08/03 05:44:24;;;;;;;4.05;0.85;;;;;;;-144.51;100.00;69251.94;4977371;28;20043;-68
2021/08/03 05:47:09;;;;;;;4.85;0.98;;;;;;;-144.51;100.00;69251.94;4975543;28;20042;-68
2021/08/03 05:49:54;;;;;;;8.73;1.85;;;;;;;-144.51;100.00;69251.94;4973757;28;20038;-68
2021/08/03 05:52:39;;;;;;;6.88;1.48;;;;;;;-144.51;100.00;69251.94;4996470;28;20050;-68
2021/08/03 05:55:24;;;;;;;4.30;1.33;;;;;;;-144.51;100.00;69251.94;4995026;28;20038;-68
2021/08/03 05:58:09;;;;;;;6.75;1.48;;;;;;;-144.51;100.00;69251.94;4998585;28;20042;-68
2021/08/03 06:00:54;;;;;;;6.22;1.63;;;;;;;-144.51;100.00;69251.94;4984481;28;20051;-68
2021/08/03 06:03:39;;;;;;;6.40;1.30;;;;;;;-144.51;100.00;69251.94;4994611;28;20054;-68
2021/08/03 06:06:26;;;;;;;7.07;1.50;;;;;;;-144.51;100.00;69251.94;4981235;28;20046;-68
2021/08/03 06:09:12;;;;;;;7.32;1.65;;;;;;;-144.51;100.00;69251.94;4987964;28;20046;-68
2021/08/03 06:12:01;;;;;;;5.13;1.40;;;;;;;-144.51;100.00;69251.94;4980083;28;20042;-68
2021/08/03 06:14:48;;;;;;;4.63;1.75;;;;;;;-144.51;100.00;69251.94;4998406;28;20042;-69
2021/08/03 06:17:35;;;;;;;3.55;1.70;;;;;;;-144.51;100.00;69251.94;4982080;28;20042;-68
2021/08/03 06:20:20;;;;;;;3.78;1.50;;;;;;;-144.51;100.00;69251.94;4994559;28;20046;-68
2021/08/03 06:23:06;;;;;;;20.40;2.25;;;;;;;-144.51;100.00;69251.94;4998399;28;20435;-68
2021/08/03 06:25:58;;;;;;;8.38;2.22;;;;;;;-144.51;100.00;69251.94;4995676;28;20420;-69
2021/08/03 06:28:44;;;;;;;11.52;2.25;;;;;;;-144.51;100.00;69251.94;4999842;28;20058;-68
2021/08/03 06:31:29;;;;;;;8.27;1.98;;;;;;;-144.51;100.00;69251.94;4996093;28;20430;-69
2021/08/03 06:34:16;;;;;;;7.30;1.98;;;;;;;-144.51;100.00;69251.94;4996242;28;20046;-69
2021/08/03 06:37:01;;;;;;;15.73;2.75;;;;;;;-144.51;100.00;69251.94;4994400;28;20038;-70
2021/08/03 06:39:46;;;;;;;5.80;1.65;;;;;;;-144.51;100.00;69251.94;4998138;28;20046;-69
2021/08/03 06:43:08;;;;;;;2.53;1.27;;;;;;;-144.51;100.00;69251.94;4993132;28;20438;-69
2021/08/03 06:46:07;;;;;;;4.22;1.00;;;;;;;-144.51;100.00;69251.94;4960000;28;20043;-70
2021/08/03 06:48:59;;;;;;;5.72;1.30;;;;;;;-144.51;100.00;69251.94;4968193;28;20043;-69
2021/08/03 06:51:46;;;;;;;7.53;1.77;;;;;;;-144.51;100.00;69251.94;4961806;28;20047;-69
2021/08/03 06:54:31;;;;;;;9.27;2.38;;;;;;;-144.51;100.00;69251.94;4958661;28;20486;-69
2021/08/03 06:57:22;;;;;;;5.90;1.40;;;;;;;-144.51;100.00;69251.94;4980884;28;20046;-70
2021/08/03 07:00:11;;;;;;;2.88;1.52;;;;;;;-144.51;100.00;69251.94;4993165;28;20038;-69
2021/08/03 07:02:58;;;;;;;3.10;1.52;;;;;;;-144.51;100.00;69251.94;4996857;28;20499;-68
2021/08/03 07:05:53;;;;;;;24.83;1.63;;;;;;;-144.51;100.00;69251.94;4992776;28;20428;-68
2021/08/03 07:08:39;;;;;;;10.90;1.88;;;;;;;-144.51;100.00;69251.94;4999383;28;20046;-69
2021/08/03 07:11:28;;;;;;;6.93;1.65;;;;;;;-144.51;100.00;69251.94;4995492;28;20054;-69
2021/08/03 07:14:17;;;;;;;16.42;2.17;;;;;;;-144.51;100.00;69251.94;4999296;28;20492;-68
2021/08/03 07:17:04;;;;;;;5.50;1.90;;;;;;;-144.51;100.00;69251.94;4999191;28;20046;-68
2021/08/03 07:19:50;;;;;;;11.93;2.42;;;;;;;-144.51;100.00;69251.94;4999223;28;20046;-68
2021/08/03 07:22:36;;;;;;;13.02;1.92;;;;;;;-144.51;100.00;69251.94;4992328;28;20042;-68
2021/08/03 07:25:21;;;;;;;10.82;2.72;;;;;;;-144.51;100.00;69251.94;4996245;28;20050;-68
2021/08/03 07:28:06;;;;;;;3.47;1.27;;;;;;;-144.51;100.00;69251.94;4999045;28;20046;-70
2021/08/03 07:30:51;;;;;;;;;;;;;;;-144.51;100.00;69251.94;4994478;28;20054;-70
2021/08/03 07:33:36;;;;;;;3.72;1.40;;;;;;;-144.51;100.00;69251.94;4992644;28;19913;-70
2021/08/03 07:36:21;;;;;;;9.35;1.50;;;;;;;-144.51;100.00;69251.94;4994324;28;20042;-70
2021/08/03 07:39:07;;;;;;;6.72;1.55;;;;;;;-144.51;100.00;69251.94;4993229;28;20050;-70
2021/08/03 07:41:55;;;;;;;3.47;1.63;;;;;;;-144.51;100.00;69251.94;4994099;28;20046;-70
2021/08/03 07:44:40;;;;;;;3.67;1.60;;;;;;;-144.51;100.00;69251.94;4994953;28;20042;-69
2021/08/03 07:47:25;;;;;;;7.03;1.63;;;;;;;-144.51;100.00;69251.94;4992972;28;20042;-70
2021/08/03 07:50:11;;;;;;;4.13;1.95;;;;;;;-144.51;100.00;69251.94;4998815;28;20054;-70
2021/08/03 07:52:56;;;;;;;5.13;1.50;;;;;;;-144.51;100.00;69251.94;4994918;28;20042;-70
2021/08/03 07:55:40;;;;;;;4.22;1.58;;;;;;;-144.51;100.00;69251.94;4993086;28;20039;-70
2021/08/03 07:58:25;;;;;;;;;;;;;;;-144.51;100.00;69251.94;4997442;28;20043;-70
2021/08/03 08:01:09;;;;;;;3.27;1.30;;;;;;;-144.51;100.00;69251.94;4994865;28;20287;-70
2021/08/03 08:03:54;;;;;;;55.13;3.60;;;;;;;-144.51;100.00;69251.94;4990938;28;20046;-70
2021/08/03 08:06:39;;;;;;;6.60;2.10;;;;;;;-144.51;100.00;69251.94;4997359;28;20046;-70
2021/08/03 08:09:24;;;;;;;1.65;0.90;;;;;;;-144.51;100.00;69251.94;4995284;28;20054;-70
2021/08/03 08:12:09;;;;;;;2.53;1.17;;;;;;;-144.51;100.00;69251.94;4976106;28;20047;-70
2021/08/03 08:14:54;;;;;;;5.25;1.33;;;;;;;-144.51;100.00;69251.94;4972611;28;20050;-70
2021/08/03 08:17:39;;;;;;;4.05;1.35;;;;;;;-144.51;100.00;69251.94;4972650;28;20047;-70
2021/08/03 08:20:24;;;;;;;6.80;1.75;;;;;;;-144.51;100.00;69251.94;4974388;28;20485;-69
2021/08/03 08:23:10;;;;;;;5.53;1.30;;;;;;;-144.51;100.00;69251.94;4979679;28;20038;-69
2021/08/03 08:25:58;;;;;;;3.95;1.20;;;;;;;-144.51;100.00;69251.94;4974507;28;20039;-69
2021/08/03 08:28:42;;;;;;;5.78;1.45;;;;;;;-144.51;100.00;69251.94;4972626;28;20039;-69
2021/08/03 08:31:27;;;;;;;4.22;1.35;;;;;;;-144.51;100.00;69251.94;4970777;28;20051;-69
2021/08/03 08:34:13;;;;;;;4.60;1.65;;;;;;;-144.51;100.00;69251.94;4965382;28;20043;-69
2021/08/03 08:36:58;;;;;;;6.90;1.88;;;;;;;-144.51;100.00;69251.94;4958688;28;20051;-69
2021/08/03 08:39:43;;;;;;;6.07;1.27;;;;;;;-144.51;100.00;69251.94;4965813;28;20051;-69
2021/08/03 08:42:29;;;;;;;3.25;1.08;;;;;;;-144.51;100.00;69251.94;4972543;28;20046;-70
2021/08/03 08:45:15;;;;;;;7.07;1.55;;;;;;;-144.51;100.00;69251.94;4968637;28;20047;-70
2021/08/03 08:48:00;;;;;;;9.75;1.42;;;;;;;-144.51;100.00;69251.94;4954302;28;20047;-68
2021/08/03 08:50:45;;;;;;;2.97;1.48;;;;;;;-144.51;100.00;69251.94;4957978;28;20043;-68
2021/08/03 08:53:33;;;;;;;4.28;2.15;;;;;;;-144.51;100.00;69251.94;4979900;28;20050;-68
2021/08/03 08:56:18;;;;;;;3.20;1.33;;;;;;;-144.51;100.00;69251.94;4977596;28;20400;-69
2021/08/03 08:59:04;;;;;;;2.90;1.20;;;;;;;-144.51;100.00;69251.94;4975908;28;20042;-69
2021/08/03 09:01:49;;;;;;;2.28;0.93;;;;;;;-144.51;100.00;69251.94;4977336;28;20441;-69
2021/08/03 09:04:34;;;;;;;4.30;1.27;;;;;;;-144.51;100.00;69251.94;4963388;28;20042;-69
2021/08/03 09:07:19;;;;;;;2.63;1.38;;;;;;;-144.51;100.00;69251.94;4975780;28;20042;-69
2021/08/03 09:10:04;;;;;;;3.85;1.38;;;;;;;-144.51;100.00;69251.94;4981005;28;20043;-69
2021/08/03 09:13:01;;;;;;;7.28;1.80;;;;;;;-144.51;100.00;69251.94;4980004;28;20043;-69
2021/08/03 09:15:55;;;;;;;4.80;2.05;;;;;;;-144.51;100.00;69251.94;4994903;28;20050;-69
2021/08/03 09:18:44;;;;;;;4.20;1.70;;;;;;;-144.51;100.00;69251.94;4998346;28;20046;-68
2021/08/03 09:21:30;;;;;;;4.70;1.85;;;;;;;-144.51;100.00;69251.94;4988174;28;20042;-70
2021/08/03 09:24:22;;;;;;;5.88;1.52;;;;;;;-144.51;100.00;69251.94;4997300;28;20459;-70
2021/08/03 09:27:07;;;;;;;6.15;2.20;;;;;;;-144.51;100.00;69251.94;4997226;28;20038;-69
2021/08/03 09:29:52;;;;;;;5.90;1.80;;;;;;;-144.51;100.00;69251.94;4987365;28;20038;-69
2021/08/03 09:32:38;;;;;;;5.72;1.95;;;;;;;-144.51;100.00;69251.94;4989898;28;20050;-69
2021/08/03 09:35:25;;;;;;;2.85;1.17;;;;;;;-144.51;100.00;69251.94;4995057;28;20041;-69
2021/08/03 09:38:18;;;;;;;7.72;1.13;;;;;;;-144.51;100.00;69251.94;4995630;28;20038;-69
2021/08/03 09:41:10;;;;;;;3.63;1.90;;;;;;;-144.51;100.00;69251.94;4993730;28;20038;-69
2021/08/03 09:43:55;;;;;;;7.03;2.97;;;;;;;-144.51;100.00;69251.94;4985696;28;20055;-69
2021/08/03 09:46:40;;;;;;;6.68;2.28;;;;;;;-144.51;100.00;69251.94;4988935;28;20044;-68
2021/08/03 09:49:41;;;;;;;3.45;1.23;;;;;;;-144.51;100.00;69251.94;4997879;28;20046;-69
2021/08/03 09:52:29;;;;;;;4.40;1.50;;;;;;;-144.51;100.00;69251.94;4988344;28;20031;-69
2021/08/03 09:55:17;;;;;;;2.75;1.27;;;;;;;-144.51;100.00;69251.94;4993344;28;20038;-70
2021/08/03 09:58:11;;;;;;;7.30;1.85;;;;;;;-144.51;100.00;69251.94;4993217;28;20038;-70
2021/08/03 10:00:56;;;;;;;6.53;2.13;;;;;;;-144.51;100.00;69251.94;4991637;28;20046;-70
2021/08/03 10:03:42;;;;;;;7.18;1.42;;;;;;;-144.51;100.00;69251.94;4994570;28;20046;-69
2021/08/03 10:06:26;;;;;;;4.80;1.27;;;;;;;-144.51;100.00;69251.94;4998505;28;20487;-69
2021/08/03 10:09:12;;;;;;;12.45;1.67;;;;;;;-144.51;100.00;69251.94;4996132;28;20046;-69
2021/08/03 10:11:57;;;;;;;2.85;1.30;;;;;;;-144.51;100.00;69251.94;4995224;28;20042;-69
2021/08/03 10:14:44;;;;;;;6.75;1.65;;;;;;;-144.51;100.00;69251.94;4986650;28;20043;-69
2021/08/03 10:17:29;;;;;;;8.73;2.25;;;;;;;-144.51;100.00;69251.94;4969435;28;20051;-69
2021/08/03 10:20:14;;;;;;;6.32;2.10;;;;;;;-144.51;100.00;69251.94;4976273;28;20050;-70
2021/08/03 10:23:05;;;;;;;7.38;1.65;;;;;;;-144.51;100.00;69251.94;4976105;28;20051;-69
2021/08/03 10:25:50;;;;;;;3.17;1.30;;;;;;;-144.51;100.00;69251.94;4964814;28;20050;-69
2021/08/03 10:28:36;;;;;;;5.20;1.70;;;;;;;-144.51;100.00;69251.94;4982847;28;20042;-69
2021/08/03 10:31:39;;;;;;;10.30;1.90;;;;;;;-144.51;100.00;69251.94;4976151;28;20404;-69
2021/08/03 10:34:42;;;;;;;5.85;1.42;;;;;;;-144.51;100.00;69251.94;4973846;28;20677;-69
2021/08/03 10:37:58;;;;;;;5.80;1.48;;;;;;;-144.51;100.00;69251.94;4975838;28;20039;-69
2021/08/03 10:40:46;;;;;;;1.60;1.20;;;;;;;-144.51;100.00;69251.94;4973595;28;20050;-69
2021/08/03 10:43:34;;;;;;;4.35;1.67;;;;;;;-144.51;100.00;69251.94;4976847;28;20408;-69
2021/08/03 10:46:20;;;;;;;6.28;1.45;;;;;;;-144.51;100.00;69251.94;4973562;28;20047;-69
2021/08/03 10:49:06;;;;;;;7.30;1.52;;;;;;;-144.51;100.00;69251.94;4979417;28;20042;-69
2021/08/03 10:51:51;;;;;;;6.00;1.10;;;;;;;-144.51;100.00;69251.94;4992823;28;20501;-69
2021/08/03 10:54:52;;;;;;;4.45;1.25;;;;;;;-144.51;100.00;69251.94;4980106;28;20034;-69
2021/08/03 10:58:09;;;;;;;4.22;1.65;;;;;;;-144.51;100.00;69251.94;4992656;28;20042;-69
2021/08/03 11:00:58;;;;;;;2.65;1.10;;;;;;;-144.51;100.00;69251.94;4991953;28;20034;-69
2021/08/03 11:03:44;;;;;;;2.75;1.33;;;;;;;-144.51;100.00;69251.94;4993388;28;20042;-70
2021/08/03 11:06:33;;;;;;;4.43;1.45;;;;;;;-144.51;100.00;69251.94;4996711;28;20039;-70
2021/08/03 11:09:31;;;;;;;2.50;1.42;;;;;;;-144.51;100.00;69251.94;4986365;28;20051;-69
2021/08/03 11:12:40;;;;;;;4.50;2.65;;;;;;;-144.51;100.00;69251.94;4991575;28;20038;-69
2021/08/03 11:15:25;;;;;;;4.28;1.48;;;;;;;-144.51;100.00;69251.94;4994622;28;20065;-69
2021/08/03 11:18:12;;;;;;;3.88;1.98;;;;;;;-144.51;100.00;69251.94;4993329;28;20042;-69
2021/08/03 11:21:02;;;;;;;4.00;2.00;;;;;;;-144.51;100.00;69251.94;4992492;28;20038;-69
2021/08/03 11:24:05;;;;;;;4.93;2.38;;;;;;;-144.51;100.00;69251.94;4991929;28;20046;-69
2021/08/03 11:26:58;;;;;;;4.68;1.95;;;;;;;-144.51;100.00;69251.94;4989422;28;20039;-70
2021/08/03 11:29:43;;;;;;;6.82;2.50;;;;;;;-144.51;100.00;69251.94;4995613;28;20038;-69
2021/08/03 11:32:27;;;;;;;4.10;2.13;;;;;;;-144.51;100.00;69251.94;4992227;28;20042;-68
2021/08/03 11:35:25;;;;;;;11.35;2.13;;;;;;;-144.51;100.00;69251.94;4989808;28;20046;-69
2021/08/03 11:38:12;;;;;;;4.70;2.10;;;;;;;-144.51;100.00;69251.94;4994763;28;20042;-69
2021/08/03 11:40:57;;;;;;;3.67;2.05;;;;;;;-144.51;100.00;69251.94;4987946;28;20034;-69
2021/08/03 11:43:42;;;;;;;4.05;2.53;;;;;;;-144.51;100.00;69251.94;4994642;28;20058;-69
2021/08/03 11:46:27;;;;;;;6.22;2.05;;;;;;;-144.51;100.00;69251.94;4989388;28;20042;-69
2021/08/03 11:49:12;;;;;;;5.97;1.80;;;;;;;-144.51;100.00;69251.94;4995344;28;20415;-69
2021/08/03 11:52:24;;;;;;;5.07;1.38;;;;;;;-144.51;100.00;69251.94;4987178;28;20046;-69
2021/08/03 11:55:14;;;;;;;7.28;1.50;;;;;;;-144.51;100.00;69251.94;4997563;28;20499;-71
2021/08/03 11:57:59;;;;;;;4.18;1.30;;;;;;;-144.51;100.00;69251.94;4997627;28;20042;-69
2021/08/03 12:00:44;;;;;;;3.38;1.23;;;;;;;-144.51;100.00;69251.94;4996793;28;20050;-70
2021/08/03 12:03:35;;;;;;;2.13;1.85;;;;;;;-144.51;100.00;69251.94;4998807;28;20042;-70
2021/08/03 12:06:19;;;;;;;1.83;1.10;;;;;;;-144.51;100.00;69251.94;4996213;28;20038;-70
2021/08/03 12:09:04;;;;;;;3.90;1.50;;;;;;;-144.51;100.00;69251.94;4998737;28;20046;-70
2021/08/03 12:11:59;;;;;;;10.57;1.42;;;;;;;-144.51;100.00;69251.94;4994150;28;20051;-70
2021/08/03 12:14:45;;;;;;;3.13;1.65;;;;;;;-144.51;100.00;69251.94;4998644;28;20038;-70
2021/08/03 12:17:30;;;;;;;3.83;1.35;;;;;;;-144.51;100.00;69251.94;4998959;28;20042;-69
2021/08/03 12:20:29;;;;;;;4.45;1.38;;;;;;;-144.51;100.00;69251.94;4998235;28;20503;-70
2021/08/03 12:23:20;;;;;;;2.00;1.10;;;;;;;-144.51;100.00;69251.94;5001534;28;20400;-70
2021/08/03 12:26:07;;;;;;;6.88;1.27;;;;;;;-144.51;100.00;69251.94;4997271;28;20039;-69
2021/08/03 12:28:53;;;;;;;5.68;1.13;;;;;;;-144.51;100.00;69251.94;5001363;28;20057;-70
2021/08/03 12:31:43;;;;;;;3.22;1.40;;;;;;;-144.51;100.00;69251.94;4998092;28;20046;-70
2021/08/03 12:34:35;;;;;;;6.90;1.30;;;;;;;-144.51;100.00;69251.94;5002196;28;20042;-70
2021/08/03 12:37:32;;;;;;;1.67;1.08;;;;;;;-144.51;100.00;69251.94;5001991;28;20035;-70
2021/08/03 12:40:32;;;;;;;3.47;1.52;;;;;;;-144.51;100.00;69251.94;5001602;28;20034;-70
2021/08/03 12:43:22;;;;;;;5.82;1.55;;;;;;;-144.51;100.00;69251.94;5001660;28;20046;-68
2021/08/03 12:46:07;;;;;;;5.28;1.73;;;;;;;-144.51;100.00;69251.94;5001829;28;20042;-70
2021/08/03 12:48:52;;;;;;;2.88;1.08;;;;;;;-144.51;100.00;69251.94;4991538;28;20039;-70